• Join FlightAware (Why Join?)
  • Login
  • US Flag 
09:13PM EST


 

Airport Tracker/Info


-or-


 

Live Flight TrackerFlight Track Log ✈ N848TC ✈ 05-Aug-2013 ✈ KAPF - KLAL

Flight Track Log - Related Links

Times and Time Zones

All times are in EDT time to prevent confusion due to time zone crossing. See the N848TC flight status page for this flight to view local times or setup timezone preferences in your user account.

Time Position Orientation Groundspeed Altitude Reporting Facility
EDT Latitude Longitude Course Direction KTS MPH feet Rate Location/Type
01:26PM 26.2358 -81.8383 North 235 270 7,400  Level Miami Center
01:27PM 26.2969 -81.8178 17° North 235 270 10,400 2,280 Climbing Miami Center
01:28PM 26.3614 -81.7647 36° Northeast 263 303 12,000 2,760 Climbing Miami Center
01:29PM 26.4369 -81.6936 40° Northeast 330 380 16,000 1,920 Climbing Miami Center
01:30PM 26.5650 -81.7500 North  Level FlightAware Approximate
01:30PM 26.5192 -81.6692 15° North 340 391 15,900  Level Miami Center
01:31PM 26.6345 -81.7500 North  Level FlightAware Approximate
01:31PM 26.6214 -81.6711 359° North 330 380 15,900  Level Miami Center
01:32PM 26.7267 -81.7011 346° North 352 405 15,900  Level Miami Center
01:33PM 26.8303 -81.7239 349° North 373 429 16,000 -600 Climbing Miami Center
01:34PM 26.9297 -81.7489 347° North 373 429 14,700 -1,080 Descending Miami Center
01:35PM 27.0228 -81.7717 348° North 353 406 13,900 -360 Descending Miami Center
01:36PM 27.1161 -81.7964 347° North 348 400 14,000  Climbing Miami Center
01:37PM 27.2092 -81.8192 348° North 348 400 13,900 -660 Descending Miami Center
01:38PM 27.3022 -81.8442 347° North 343 395 12,700 -1,560 Descending Miami Center
01:39PM 27.3997 -81.8625 351° North 343 395 10,800 -1,800 Descending Miami Center
01:40PM 27.4800 -81.8964 339° North 330 380 9,200 -1,260 Descending Miami Center
01:41PM 27.5461 -81.9156 346° North 256 295 8,300 -1,080 Descending Miami Center
01:42PM 27.6058 -81.9369 342° North 214 246 7,100 -1,440 Descending Miami Center
01:43PM 27.6781 -81.9614 343° North 244 281 5,500 -1,560 Descending Miami Center
01:44PM 27.7439 -81.9806 346° North 268 308 4,000 -780 Descending Miami Center
01:45PM 27.8206 -82.0006 347° North 253 291 4,000 -420 Level Miami Center
01:46PM 27.8833 -82.0167 347° North 260 299 3,200 -1,080 Descending Tampa TRACON
01:47PM 27.9500 -82.0500 336° Northwest 222 255 1,900 -1,020 Descending Tampa TRACON
01:49PM 28.0050 -82.0347 14° North 113 130 200 4,680 Descending Miami Center
01:50PM 28.0364 -82.0314 North 113 130 16,000 7,860 Climbing Miami Center
01:51PM 28.0678 -82.0258 North 113 130 16,000  Level Miami Center